Time;durP1;ratioP1;P1;durP2;ratioP2;P2;SDS_P1;SDS_P2;PMS_P1;PMS_P2;Temp;Humidity;BMP_temperature;BMP_pressure;BME280_temperature;BME280_humidity;BME280_pressure;Samples;Min_cycle;Max_cycle;Signal;HPM_P1;HPM_P2
2023/06/09 00:01:27;;;;;;;7.10;1.80;;;;;;;18.65;100.00;100349.78;4983038;28;20055;-72
2023/06/09 00:03:52;;;;;;;3.90;1.85;;;;;;;18.69;100.00;100369.16;4975933;28;20101;-73
2023/06/09 00:06:22;;;;;;;3.33;1.88;;;;;;;18.32;100.00;100288.03;5009276;28;20034;-73
2023/06/09 00:08:51;;;;;;;3.25;1.55;;;;;;;18.58;100.00;100347.38;4978310;28;20054;-74
2023/06/09 00:11:17;;;;;;;3.63;1.98;;;;;;;18.64;100.00;100356.03;4977993;28;20045;-74
2023/06/09 00:13:43;;;;;;;6.22;3.00;;;;;;;18.10;100.00;100258.69;4991229;28;20136;-73
2023/06/09 00:16:08;;;;;;;4.78;1.85;;;;;;;18.08;100.00;100260.50;4995307;28;20790;-72
2023/06/09 00:18:34;;;;;;;9.45;2.05;;;;;;;18.00;100.00;100259.88;4978785;28;20438;-72
2023/06/09 00:21:00;;;;;;;3.28;1.70;;;;;;;17.95;100.00;100269.78;4979342;28;20095;-72
2023/06/09 00:23:28;;;;;;;5.35;2.20;;;;;;;18.56;100.00;100360.72;4978805;28;20438;-73
2023/06/09 00:25:54;;;;;;;2.92;1.50;;;;;;;17.98;100.00;100278.53;4978868;28;20406;-74
2023/06/09 00:28:19;;;;;;;4.60;2.50;;;;;;;18.40;100.00;100336.44;4976130;28;20074;-73
2023/06/09 00:30:45;;;;;;;2.65;1.55;;;;;;;18.43;100.00;100336.34;4979378;28;20038;-72
2023/06/09 00:33:11;;;;;;;3.15;2.45;;;;;;;17.71;100.00;100230.69;4983145;28;20126;-72
2023/06/09 00:35:37;;;;;;;5.93;2.22;;;;;;;17.89;100.00;100277.03;5008344;28;20047;-73
2023/06/09 00:38:03;;;;;;;2.50;2.20;;;;;;;18.20;100.00;100349.53;4984048;28;20085;-73
2023/06/09 00:40:28;;;;;;;6.53;2.55;;;;;;;18.07;100.00;100341.06;4982561;28;20049;-74
2023/06/09 00:42:54;;;;;;;3.67;2.10;;;;;;;18.11;100.00;100340.06;4979889;28;21757;-73
2023/06/09 00:45:20;;;;;;;4.28;2.35;;;;;;;17.52;100.00;100243.69;4979296;28;20078;-73
2023/06/09 00:47:45;;;;;;;5.43;3.08;;;;;;;18.13;100.00;100340.88;4980163;28;20141;-72
2023/06/09 00:50:12;;;;;;;4.32;2.33;;;;;;;18.20;100.00;100345.09;4978956;28;20398;-72
2023/06/09 00:52:40;;;;;;;5.75;3.10;;;;;;;17.91;100.00;100312.38;4977197;28;20054;-72
2023/06/09 00:55:06;;;;;;;8.35;4.15;;;;;;;17.59;100.00;100239.06;4980231;28;20407;-74
2023/06/09 00:57:33;;;;;;;4.22;3.40;;;;;;;17.65;100.00;100261.84;4998025;28;20125;-72
2023/06/09 01:00:00;;;;;;;7.70;2.47;;;;;;;18.09;100.00;100331.28;4981131;28;20133;-72
2023/06/09 01:02:25;;;;;;;4.80;2.92;;;;;;;17.94;100.00;100322.03;4982234;28;20462;-73
2023/06/09 01:04:52;;;;;;;4.22;2.88;;;;;;;17.59;100.00;100268.25;4980326;28;20053;-73
2023/06/09 01:07:28;;;;;;;5.72;2.78;;;;;;;17.95;100.00;100349.44;4984350;28;20046;-73
2023/06/09 01:10:48;;;;;;;7.43;3.25;;;;;;;17.88;100.00;100356.72;4981720;28;20153;-72
2023/06/09 01:13:34;;;;;;;5.70;2.40;;;;;;;17.29;100.00;100339.84;4948221;28;20268;-73
2023/06/09 01:16:05;;;;;;;11.85;3.70;;;;;;;17.52;100.00;100347.16;4973337;28;20059;-73
2023/06/09 01:18:35;;;;;;;3.85;2.72;;;;;;;16.86;100.00;100252.75;4965484;28;20062;-72
2023/06/09 01:21:17;;;;;;;3.67;2.50;;;;;;;17.44;100.00;100348.28;4976271;28;20465;-74
2023/06/09 01:24:11;;;;;;;8.80;3.43;;;;;;;17.14;100.00;100361.53;4980944;28;20054;-73
2023/06/09 01:26:40;;;;;;;7.05;3.17;;;;;;;16.03;100.00;100199.31;4978830;28;20046;-73
2023/06/09 01:29:06;;;;;;;9.30;2.75;;;;;;;16.64;100.00;100314.22;4983008;28;20046;-73
2023/06/09 01:31:33;;;;;;;4.15;2.63;;;;;;;15.99;100.00;100224.13;4979819;28;20065;-73
2023/06/09 01:34:00;;;;;;;6.93;2.13;;;;;;;16.53;100.00;100311.00;4981840;28;20054;-72
2023/06/09 01:36:27;;;;;;;4.25;2.95;;;;;;;15.48;100.00;100142.50;4981983;28;20638;-73
2023/06/09 01:38:52;;;;;;;3.10;1.98;;;;;;;16.08;100.00;100246.84;4978539;28;20104;-73
2023/06/09 01:41:18;;;;;;;5.63;2.13;;;;;;;15.95;100.00;100252.47;4983863;28;20042;-73
2023/06/09 01:43:43;;;;;;;4.75;2.40;;;;;;;15.94;100.00;100285.09;4977476;28;20058;-73
2023/06/09 01:46:09;;;;;;;4.45;2.67;;;;;;;15.67;100.00;100235.50;4981906;28;20050;-73
2023/06/09 01:49:02;;;;;;;7.10;2.72;;;;;;;16.30;100.00;100353.97;4984438;28;20064;-72
2023/06/09 01:51:51;;;;;;;4.00;2.58;;;;;;;16.22;100.00;100348.88;4984687;28;20140;-72
2023/06/09 01:54:35;;;;;;;4.18;2.58;;;;;;;15.26;100.00;100238.16;4980592;28;20059;-74
2023/06/09 01:57:26;;;;;;;5.85;2.95;;;;;;;15.74;100.00;100351.75;4980662;28;20081;-72
2023/06/09 02:00:00;;;;;;;10.43;3.35;;;;;;;15.68;100.00;100337.75;4983436;28;20049;-73
2023/06/09 02:02:28;;;;;;;4.55;3.10;;;;;;;15.14;100.00;100249.00;4982284;28;20083;-73
2023/06/09 02:04:56;;;;;;;9.23;3.28;;;;;;;15.35;100.00;100296.13;4981895;28;20146;-73
2023/06/09 02:07:22;;;;;;;5.40;3.15;;;;;;;13.92;100.00;100102.69;4981804;28;20158;-74
2023/06/09 02:09:48;;;;;;;4.97;2.47;;;;;;;15.02;100.00;100302.13;4978881;28;20038;-74
2023/06/09 02:12:13;;;;;;;6.57;3.50;;;;;;;15.11;100.00;100339.81;4984050;28;20034;-72
2023/06/09 02:14:41;;;;;;;5.13;3.45;;;;;;;14.40;100.00;100217.88;4981181;28;20509;-72
2023/06/09 02:17:08;;;;;;;7.53;3.63;;;;;;;14.64;100.00;100238.56;4975898;28;20077;-71
2023/06/09 02:19:37;;;;;;;5.22;3.47;;;;;;;14.31;100.00;100237.41;4981747;28;20138;-72
2023/06/09 02:22:04;;;;;;;5.22;2.83;;;;;;;14.32;100.00;100244.44;4981843;28;20046;-71
2023/06/09 02:24:30;;;;;;;6.63;2.40;;;;;;;14.89;100.00;100347.28;4979021;28;20038;-71
2023/06/09 02:26:56;;;;;;;6.13;3.92;;;;;;;14.98;100.00;100352.41;4982563;28;20043;-74
2023/06/09 02:29:25;;;;;;;4.30;2.92;;;;;;;14.85;100.00;100344.72;4979824;28;20093;-71
2023/06/09 02:31:52;;;;;;;6.05;3.15;;;;;;;14.23;100.00;100273.63;4981258;28;20050;-70
2023/06/09 02:34:22;;;;;;;4.25;2.92;;;;;;;14.61;100.00;100344.28;4980010;28;20046;-72
2023/06/09 02:36:54;;;;;;;4.80;2.35;;;;;;;14.84;100.00;100359.69;4975705;28;20109;-72
2023/06/09 02:39:23;;;;;;;6.88;3.50;;;;;;;14.27;100.00;100289.38;4984637;28;20516;-74
2023/06/09 02:41:48;;;;;;;7.43;3.55;;;;;;;14.01;100.00;100241.47;4982101;28;20058;-74
2023/06/09 02:44:14;;;;;;;5.65;2.65;;;;;;;14.85;100.00;100360.59;4980990;28;20097;-74
2023/06/09 02:46:41;;;;;;;8.00;4.70;;;;;;;14.99;100.00;100371.75;4982757;28;20417;-72
2023/06/09 02:49:08;;;;;;;7.63;3.17;;;;;;;14.60;100.00;100361.00;4982567;28;20133;-73
2023/06/09 02:51:33;;;;;;;6.03;2.72;;;;;;;14.78;100.00;100360.69;4978800;28;20474;-72
2023/06/09 02:53:59;;;;;;;7.55;3.40;;;;;;;14.84;100.00;100369.38;4976201;28;20065;-73
2023/06/09 02:56:26;;;;;;;3.67;2.20;;;;;;;14.13;100.00;100270.25;4987163;28;20042;-73
2023/06/09 02:58:53;;;;;;;5.07;3.47;;;;;;;13.82;100.00;100230.34;4982441;28;20829;-71
2023/06/09 03:01:20;;;;;;;6.57;3.72;;;;;;;14.66;100.00;100397.88;4983841;28;20486;-72
2023/06/09 03:03:46;;;;;;;4.30;2.67;;;;;;;14.79;100.00;100380.03;4978852;28;20061;-72
2023/06/09 03:06:16;;;;;;;5.00;3.58;;;;;;;14.47;100.00;100378.81;4986720;28;20328;-72
2023/06/09 03:08:42;;;;;;;8.43;3.92;;;;;;;13.86;100.00;100268.94;4984496;28;20511;-73
2023/06/09 03:11:07;;;;;;;4.90;2.78;;;;;;;13.82;100.00;100265.50;4981704;28;20058;-73
2023/06/09 03:13:33;;;;;;;6.30;4.00;;;;;;;14.27;100.00;100362.41;4986229;28;20153;-73
2023/06/09 03:15:58;;;;;;;10.65;3.42;;;;;;;14.65;100.00;100406.69;4977885;28;20050;-72
2023/06/09 03:18:26;;;;;;;5.50;3.30;;;;;;;14.46;100.00;100392.03;4981795;28;20035;-72
2023/06/09 03:20:51;;;;;;;7.65;4.00;;;;;;;14.15;100.00;100316.84;4986852;28;20042;-72
2023/06/09 03:23:20;;;;;;;6.72;2.83;;;;;;;13.97;100.00;100277.56;4986842;28;20046;-73
2023/06/09 03:25:46;;;;;;;5.93;3.15;;;;;;;14.42;100.00;100312.00;4988974;28;20092;-72
2023/06/09 03:28:12;;;;;;;6.38;3.65;;;;;;;14.87;100.00;100382.56;4983205;28;20415;-74
2023/06/09 03:30:37;;;;;;;6.70;3.55;;;;;;;14.46;100.00;100299.63;4981074;28;20038;-73
2023/06/09 03:33:03;;;;;;;5.43;3.05;;;;;;;14.47;100.00;100315.44;4985552;28;20046;-72
2023/06/09 03:35:28;;;;;;;5.20;3.08;;;;;;;14.86;100.00;100396.66;4987712;28;20057;-72
2023/06/09 03:37:54;;;;;;;5.30;2.75;;;;;;;14.32;100.00;100290.16;4982185;28;20049;-73
2023/06/09 03:40:19;;;;;;;2.97;2.30;;;;;;;14.89;100.00;100363.13;4979221;28;20982;-72
2023/06/09 03:42:44;;;;;;;7.25;4.00;;;;;;;15.19;100.00;100397.78;4981421;28;20041;-73
2023/06/09 03:45:10;;;;;;;5.55;3.13;;;;;;;15.46;100.00;100414.03;4976464;28;20085;-74
2023/06/09 03:47:35;;;;;;;5.70;2.92;;;;;;;15.56;100.00;100416.44;4981827;28;20038;-72
2023/06/09 03:50:01;;;;;;;5.13;2.72;;;;;;;15.13;100.00;100326.56;4977546;28;20499;-72
2023/06/09 03:52:27;;;;;;;7.47;3.25;;;;;;;14.99;100.00;100282.78;4984354;28;20038;-72
2023/06/09 03:54:52;;;;;;;7.00;3.13;;;;;;;15.27;100.00;100324.50;4984538;28;20030;-72
2023/06/09 03:57:18;;;;;;;6.72;3.38;;;;;;;15.46;100.00;100343.50;4983514;28;20031;-72
2023/06/09 03:59:43;;;;;;;5.40;3.25;;;;;;;15.30;100.00;100302.41;4979259;28;20063;-73
2023/06/09 04:02:09;;;;;;;12.10;3.72;;;;;;;15.83;100.00;100407.09;4981702;28;20513;-73
2023/06/09 04:04:34;;;;;;;5.25;3.80;;;;;;;15.59;100.00;100394.34;4982403;28;20505;-71
2023/06/09 04:07:00;;;;;;;6.30;3.17;;;;;;;15.83;100.00;100401.81;4981191;28;20074;-72
2023/06/09 04:09:27;;;;;;;9.02;3.63;;;;;;;15.82;100.00;100402.69;4980776;28;20137;-72
2023/06/09 04:11:52;;;;;;;9.63;3.13;;;;;;;15.58;100.00;100332.66;4980755;28;20120;-72
2023/06/09 04:14:18;;;;;;;5.88;3.38;;;;;;;16.15;100.00;100413.44;4977164;28;20050;-71
2023/06/09 04:16:45;;;;;;;8.77;4.00;;;;;;;15.95;100.00;100346.88;4978035;28;20077;-72
2023/06/09 04:19:10;;;;;;;3.80;2.53;;;;;;;16.34;100.00;100387.41;4974130;28;20057;-73
2023/06/09 04:21:37;;;;;;;6.82;3.72;;;;;;;16.51;100.00;100389.66;4981984;28;20855;-72
2023/06/09 04:24:03;;;;;;;5.65;3.55;;;;;;;16.44;100.00;100370.38;4979613;28;20125;-72
2023/06/09 04:26:29;;;;;;;4.93;2.92;;;;;;;16.15;100.00;100306.69;4985218;28;20512;-72
2023/06/09 04:28:55;;;;;;;5.88;3.13;;;;;;;16.88;100.00;100416.13;4978222;28;20054;-72
2023/06/09 04:31:23;;;;;;;6.75;3.63;;;;;;;17.00;100.00;100425.53;4976322;28;20544;-73
2023/06/09 04:33:53;;;;;;;5.07;3.28;;;;;;;17.15;100.00;100437.50;4978366;28;20088;-72
2023/06/09 04:36:20;;;;;;;6.28;3.08;;;;;;;16.76;100.00;100344.81;4979086;28;20549;-73
2023/06/09 04:38:47;;;;;;;5.88;3.67;;;;;;;17.42;100.00;100443.84;4980956;28;20518;-73
2023/06/09 04:41:12;;;;;;;8.43;4.38;;;;;;;17.09;100.00;100356.34;4976840;28;20236;-73
2023/06/09 04:43:39;;;;;;;4.70;2.95;;;;;;;16.73;100.00;100276.03;4978315;28;20054;-73
2023/06/09 04:46:08;;;;;;;8.25;3.22;;;;;;;17.34;100.00;100360.94;4979767;28;20052;-73
2023/06/09 04:48:34;;;;;;;3.70;2.53;;;;;;;17.83;100.00;100433.84;4977566;28;20462;-74
2023/06/09 04:51:03;;;;;;;4.40;2.63;;;;;;;17.79;100.00;100408.25;5000234;28;20058;-73
2023/06/09 04:53:29;;;;;;;8.30;3.38;;;;;;;16.98;100.00;100244.44;4980257;28;20888;-73
2023/06/09 04:55:55;;;;;;;4.35;2.70;;;;;;;17.66;100.00;100329.94;4977846;28;20082;-74
2023/06/09 04:58:21;;;;;;;4.78;2.88;;;;;;;18.49;100.00;100441.56;4978236;28;20046;-73
2023/06/09 05:00:47;;;;;;;4.72;3.25;;;;;;;17.81;100.00;100326.84;4979292;28;20116;-74
2023/06/09 05:03:17;;;;;;;6.90;3.28;;;;;;;18.22;100.00;100318.47;4977104;28;20034;-72
2023/06/09 05:05:42;;;;;;;5.22;3.78;;;;;;;19.57;100.00;100457.38;4982335;28;20053;-73
2023/06/09 05:08:08;;;;;;;4.13;2.72;;;;;;;19.58;100.00;100432.53;4976742;28;20050;-74
2023/06/09 05:10:34;;;;;;;4.30;2.83;;;;;;;19.16;100.00;100396.75;4971784;28;20042;-73
2023/06/09 05:13:00;;;;;;;6.80;4.05;;;;;;;19.52;100.00;100353.75;4975518;28;20046;-73
2023/06/09 05:15:26;;;;;;;4.60;2.85;;;;;;;19.70;100.00;100327.41;4969909;28;20125;-73
2023/06/09 05:17:52;;;;;;;3.95;2.20;;;;;;;20.63;100.00;100453.38;4970905;28;20057;-72
2023/06/09 05:20:19;;;;;;;6.25;4.65;;;;;;;21.28;100.00;100432.81;4966981;28;20042;-73
2023/06/09 05:22:45;;;;;;;7.47;4.07;;;;;;;21.95;100.00;100458.31;4974772;28;20407;-72
2023/06/09 05:25:14;;;;;;;7.97;3.47;;;;;;;21.29;100.00;100370.50;4974233;28;20127;-73
2023/06/09 05:27:39;;;;;;;9.15;2.38;;;;;;;21.02;100.00;100424.13;4971969;28;20078;-72
2023/06/09 05:30:06;;;;;;;4.70;2.80;;;;;;;21.67;100.00;100359.88;4972679;28;20750;-72
2023/06/09 05:32:31;;;;;;;2.80;1.90;;;;;;;22.66;100.00;100458.47;4974542;28;20050;-73
2023/06/09 05:35:00;;;;;;;6.32;3.15;;;;;;;22.21;100.00;100438.41;4971628;28;20046;-79
2023/06/09 05:37:26;;;;;;;7.50;4.80;;;;;;;20.75;100.00;100372.84;4990271;28;20576;-79
2023/06/09 05:39:52;;;;;;;5.40;2.13;;;;;;;22.30;100.00;100389.81;4972400;28;20046;-68
2023/06/09 05:42:18;;;;;;;5.85;2.10;;;;;;;23.06;100.00;100450.28;4975570;28;20031;-69
2023/06/09 05:44:43;;;;;;;5.63;3.63;;;;;;;23.52;99.18;100450.56;4971364;28;20207;-73
2023/06/09 05:47:09;;;;;;;5.13;2.30;;;;;;;22.58;99.59;100444.63;4971665;28;20081;-72
2023/06/09 05:49:34;;;;;;;3.42;2.20;;;;;;;23.40;100.00;100454.75;4976730;28;20039;-75
2023/06/09 05:52:00;;;;;;;3.03;2.00;;;;;;;23.49;91.01;100362.34;4972264;28;20050;-74
2023/06/09 05:54:26;;;;;;;4.47;2.60;;;;;;;22.88;91.10;100386.03;4976050;28;20050;-76
2023/06/09 05:56:53;;;;;;;4.80;2.65;;;;;;;24.33;87.47;100459.56;4970229;28;20046;-75
2023/06/09 05:59:20;;;;;;;5.35;3.58;;;;;;;23.09;88.38;100388.59;4973869;28;20050;-74
2023/06/09 06:01:49;;;;;;;3.33;2.05;;;;;;;23.96;82.02;100436.63;4974368;28;20058;-75
2023/06/09 06:04:15;;;;;;;2.65;1.58;;;;;;;24.69;76.80;100449.50;4980853;28;20119;-75
2023/06/09 06:06:41;;;;;;;3.78;2.17;;;;;;;24.75;76.42;100449.16;4972579;28;20138;-74
2023/06/09 06:09:06;;;;;;;5.70;1.77;;;;;;;24.50;79.85;100455.94;4975765;28;20034;-74
2023/06/09 06:11:32;;;;;;;2.42;2.08;;;;;;;24.09;79.82;100458.22;4977384;28;20466;-75
2023/06/09 06:13:57;;;;;;;2.25;1.30;;;;;;;24.81;74.48;100460.38;4983062;28;20046;-73
2023/06/09 06:16:23;;;;;;;6.47;1.23;;;;;;;24.40;70.41;100460.94;4976809;28;20054;-76
2023/06/09 06:18:48;;;;;;;2.92;1.63;;;;;;;24.13;69.30;100348.03;4972889;28;20233;-73
2023/06/09 06:21:14;;;;;;;4.03;1.40;;;;;;;24.51;69.17;100441.56;4980058;28;20122;-75
2023/06/09 06:23:39;;;;;;;3.30;1.60;;;;;;;23.96;76.70;100409.81;4977511;28;20137;-74
2023/06/09 06:26:05;;;;;;;2.53;1.38;;;;;;;24.13;74.27;100382.03;4981012;28;20163;-74
2023/06/09 06:28:31;;;;;;;14.07;1.88;;;;;;;23.60;77.77;100366.16;4974829;28;20066;-74
2023/06/09 06:30:57;;;;;;;4.28;1.45;;;;;;;23.55;79.96;100463.78;4988681;28;20541;-75
2023/06/09 06:33:23;;;;;;;2.17;1.10;;;;;;;24.40;76.67;100419.84;4980254;28;20463;-74
2023/06/09 06:35:49;;;;;;;3.15;2.13;;;;;;;23.44;80.38;100450.13;4982795;28;20498;-73
2023/06/09 06:38:15;;;;;;;5.72;2.45;;;;;;;23.22;84.23;100394.16;4983545;28;20073;-74
2023/06/09 06:40:42;;;;;;;2.78;1.15;;;;;;;23.98;76.20;100373.91;4973813;28;20044;-74
2023/06/09 06:43:08;;;;;;;2.38;1.42;;;;;;;23.57;83.49;100449.38;4983969;28;20490;-75
2023/06/09 06:45:33;;;;;;;5.05;1.30;;;;;;;23.91;81.27;100407.38;4975116;28;20038;-74
2023/06/09 06:48:00;;;;;;;2.35;1.40;;;;;;;24.47;80.71;100450.75;4982856;28;20047;-75
2023/06/09 06:50:27;;;;;;;3.95;1.50;;;;;;;24.81;76.07;100430.84;4980643;28;20124;-75
2023/06/09 06:52:52;;;;;;;2.55;1.35;;;;;;;24.10;80.90;100446.56;4981091;28;20510;-75
2023/06/09 06:55:18;;;;;;;2.00;1.17;;;;;;;24.85;78.41;100436.91;4985008;28;20052;-74
2023/06/09 06:57:44;;;;;;;1.95;1.00;;;;;;;24.49;77.77;100316.50;4979411;28;20066;-74
2023/06/09 07:00:16;;;;;;;2.72;1.42;;;;;;;24.75;71.41;100425.00;4980688;28;20036;-74
2023/06/09 07:02:44;;;;;;;5.82;1.63;;;;;;;24.88;72.44;100361.56;4978736;28;20755;-74
2023/06/09 07:05:10;;;;;;;3.75;1.75;;;;;;;25.02;70.56;100444.81;4977730;28;20489;-77
2023/06/09 07:07:36;;;;;;;1.02;0.73;;;;;;;24.49;69.61;100422.03;4984237;28;20047;-76
2023/06/09 07:10:02;;;;;;;3.92;2.35;;;;;;;24.82;69.79;100418.31;4985871;28;20053;-75
2023/06/09 07:12:28;;;;;;;2.10;1.05;;;;;;;23.88;71.95;100359.31;4981597;28;20034;-75
2023/06/09 07:14:53;;;;;;;2.33;1.00;;;;;;;24.21;73.46;100337.75;4962895;28;20058;-74
2023/06/09 07:17:19;;;;;;;3.75;1.77;;;;;;;25.16;69.99;100440.44;4970255;28;20046;-74
2023/06/09 07:19:45;;;;;;;3.45;1.88;;;;;;;24.56;69.84;100347.38;4986572;28;20054;-74
2023/06/09 07:22:10;;;;;;;2.25;1.05;;;;;;;24.23;75.10;100428.81;4980446;28;20371;-74
2023/06/09 07:24:35;;;;;;;1.67;0.90;;;;;;;25.08;74.21;100430.19;4979326;28;20027;-76
2023/06/09 07:27:01;;;;;;;2.60;1.42;;;;;;;24.27;74.89;100403.56;4985139;28;20033;-74
2023/06/09 07:29:27;;;;;;;1.83;0.85;;;;;;;25.10;71.67;100412.16;4987533;28;20058;-75
2023/06/09 07:31:52;;;;;;;1.77;0.88;;;;;;;24.48;69.72;100352.34;4985271;28;20059;-75
2023/06/09 07:34:18;;;;;;;5.05;1.77;;;;;;;24.66;72.06;100339.66;4987478;28;20402;-76
2023/06/09 07:36:46;;;;;;;11.57;4.40;;;;;;;25.37;69.92;100420.38;4979771;28;20497;-74
2023/06/09 07:39:11;;;;;;;4.03;2.42;;;;;;;25.85;69.97;100431.72;4980354;28;20202;-74
2023/06/09 07:41:37;;;;;;;2.22;1.38;;;;;;;24.96;65.66;100396.88;4995705;28;20038;-74
2023/06/09 07:44:02;;;;;;;3.42;1.70;;;;;;;25.77;64.91;100430.47;4987059;28;20038;-77
2023/06/09 07:46:30;;;;;;;3.05;1.55;;;;;;;26.18;64.10;100432.38;4989144;28;20490;-75
2023/06/09 07:48:57;;;;;;;1.83;1.40;;;;;;;24.47;64.71;100409.63;4978078;28;20503;-73
2023/06/09 07:51:22;;;;;;;2.53;1.40;;;;;;;25.10;66.18;100432.75;4976289;28;20030;-72
2023/06/09 07:53:47;;;;;;;1.77;1.13;;;;;;;24.16;65.63;100328.22;4976891;28;20746;-73
2023/06/09 07:56:13;;;;;;;3.05;1.58;;;;;;;24.09;67.64;100330.44;4978514;28;20101;-73
2023/06/09 07:58:38;;;;;;;1.88;1.30;;;;;;;25.17;65.08;100428.72;4973902;28;20138;-72
2023/06/09 08:01:05;;;;;;;2.83;1.48;;;;;;;24.42;68.18;100431.34;4980762;28;20051;-71
2023/06/09 08:03:34;;;;;;;2.33;1.65;;;;;;;24.74;69.54;100418.75;4980153;28;20069;-72
2023/06/09 08:06:00;;;;;;;3.35;1.70;;;;;;;25.20;64.42;100330.09;4977561;28;20153;-71
2023/06/09 08:08:26;;;;;;;4.43;2.05;;;;;;;25.29;65.03;100312.53;4977048;28;20050;-72
2023/06/09 08:10:52;;;;;;;2.60;1.30;;;;;;;24.83;64.99;100351.09;4983625;28;20046;-72
2023/06/09 08:13:17;;;;;;;3.33;1.25;;;;;;;25.06;64.30;100355.06;4980436;28;20050;-72
2023/06/09 08:15:44;;;;;;;3.63;1.42;;;;;;;25.39;60.67;100305.63;4985597;28;20497;-73
2023/06/09 08:18:09;;;;;;;3.30;1.48;;;;;;;25.73;59.44;100295.41;4980141;28;20117;-73
2023/06/09 08:20:35;;;;;;;3.35;1.70;;;;;;;25.36;62.08;100415.09;4982446;28;22325;-75
2023/06/09 08:23:00;;;;;;;4.97;1.42;;;;;;;26.01;61.88;100326.75;4983256;28;20058;-74
2023/06/09 08:25:26;;;;;;;5.45;1.42;;;;;;;26.45;58.48;100375.84;4988343;28;20053;-74
2023/06/09 08:27:51;;;;;;;1.73;1.13;;;;;;;25.90;61.51;100420.69;4984369;28;20109;-75
2023/06/09 08:30:17;;;;;;;2.97;1.63;;;;;;;25.94;58.64;100408.75;4985395;28;20063;-76
2023/06/09 08:32:44;;;;;;;1.35;0.80;;;;;;;25.31;60.09;100326.75;5017849;28;20138;-75
2023/06/09 08:35:10;;;;;;;2.58;1.05;;;;;;;25.43;62.11;100317.91;4987055;28;20042;-74
2023/06/09 08:37:36;;;;;;;1.90;1.17;;;;;;;25.62;63.15;100387.47;5017646;28;20046;-75
2023/06/09 08:40:04;;;;;;;1.88;1.17;;;;;;;25.52;62.22;100307.50;4983891;28;20045;-77
2023/06/09 08:42:31;;;;;;;1.92;1.27;;;;;;;26.95;58.82;100399.38;5011284;28;20284;-77
2023/06/09 08:45:03;;;;;;;4.72;2.70;;;;;;;26.61;56.19;100354.19;4989277;28;20046;-75
2023/06/09 08:47:30;;;;;;;5.80;1.35;;;;;;;26.63;59.31;100384.56;4983060;28;20109;-77
2023/06/09 08:50:02;;;;;;;1.38;1.05;;;;;;;26.21;54.41;100332.63;5014068;28;20074;-77
2023/06/09 08:52:29;;;;;;;2.55;1.33;;;;;;;25.94;52.95;100400.69;4982730;28;20058;-76
2023/06/09 08:54:56;;;;;;;1.98;1.27;;;;;;;26.15;55.06;100392.19;4987792;28;20449;-75
2023/06/09 08:57:22;;;;;;;3.15;1.30;;;;;;;25.17;54.00;100263.13;4985298;28;20429;-75
2023/06/09 08:59:48;;;;;;;1.48;0.70;;;;;;;27.35;52.28;100355.38;4985488;28;20113;-75
2023/06/09 09:02:14;;;;;;;1.83;1.02;;;;;;;27.15;52.43;100252.50;4984661;28;20358;-75
2023/06/09 09:04:40;;;;;;;5.53;1.48;;;;;;;26.93;51.45;100368.16;4985060;28;20081;-77
2023/06/09 09:07:08;;;;;;;2.08;1.40;;;;;;;26.59;50.66;100367.75;4987041;28;20505;-76
2023/06/09 09:09:33;;;;;;;1.73;1.13;;;;;;;27.67;50.24;100377.28;4986180;28;20030;-76
2023/06/09 09:11:59;;;;;;;4.45;1.80;;;;;;;26.85;49.35;100260.09;4985935;28;20065;-76
2023/06/09 09:14:25;;;;;;;3.10;2.15;;;;;;;25.93;49.41;100320.16;4985181;28;20042;-76
2023/06/09 09:16:51;;;;;;;2.10;0.98;;;;;;;26.17;48.85;100372.31;4980931;28;20057;-77
2023/06/09 09:19:27;;;;;;;4.03;1.38;;;;;;;25.76;50.08;100332.81;4987232;28;20482;-77
2023/06/09 09:21:57;;;;;;;1.33;0.50;;;;;;;26.65;49.54;100266.88;4985100;28;20074;-79
2023/06/09 09:24:29;;;;;;;1.90;1.23;;;;;;;26.65;45.57;100358.41;4983693;28;20487;-74
2023/06/09 09:26:57;;;;;;;;;;;;;;;27.05;46.50;100382.59;4984399;28;20053;-74
2023/06/09 09:29:27;;;;;;;2.92;1.40;;;;;;;28.09;45.28;100374.31;4980566;28;19926;-73
2023/06/09 09:32:02;;;;;;;2.45;1.95;;;;;;;27.19;46.85;100263.09;4986901;28;20057;-73
2023/06/09 09:34:34;;;;;;;4.40;1.13;;;;;;;27.98;43.48;100299.59;4984435;28;20165;-73
2023/06/09 09:37:01;;;;;;;3.30;1.23;;;;;;;27.82;43.01;100356.47;4985300;28;20133;-74
2023/06/09 09:39:27;;;;;;;1.98;0.80;;;;;;;27.24;42.63;100304.06;4981850;28;20036;-72
2023/06/09 09:42:08;;;;;;;1.65;0.85;;;;;;;27.57;43.04;100342.06;4983556;28;20422;-73
2023/06/09 09:44:42;;;;;;;9.40;1.13;;;;;;;27.03;42.66;100322.56;4985068;28;20540;-74
2023/06/09 09:47:13;;;;;;;1.20;0.80;;;;;;;27.52;43.59;100343.38;4986458;28;20561;-74
2023/06/09 09:49:53;;;;;;;1.92;1.08;;;;;;;27.89;41.23;100263.38;4980924;28;20074;-74
2023/06/09 09:52:26;;;;;;;3.33;1.88;;;;;;;28.43;42.06;100332.16;4979823;28;20050;-74
2023/06/09 09:54:56;;;;;;;2.10;1.10;;;;;;;27.11;42.35;100352.53;4986176;28;20044;-74
2023/06/09 09:57:24;;;;;;;2.05;1.23;;;;;;;28.03;42.84;100332.47;4984709;28;20037;-73
2023/06/09 09:59:51;;;;;;;2.22;1.20;;;;;;;27.33;39.93;100277.31;4983903;28;20064;-73
2023/06/09 10:02:24;;;;;;;2.38;1.67;;;;;;;28.52;40.93;100338.75;4973424;28;20124;-74
2023/06/09 10:04:50;;;;;;;1.38;1.00;;;;;;;28.10;39.50;100330.19;4982867;28;20057;-73
2023/06/09 10:07:21;;;;;;;2.92;1.23;;;;;;;29.43;37.49;100238.78;4982332;28;20058;-75
2023/06/09 10:09:53;;;;;;;4.05;2.00;;;;;;;28.86;34.60;100230.78;4977539;28;20034;-74
2023/06/09 10:12:22;;;;;;;2.03;1.02;;;;;;;28.28;36.89;100244.25;4978681;28;20478;-74
2023/06/09 10:14:51;;;;;;;5.13;2.28;;;;;;;29.34;37.19;100238.66;4985996;28;20517;-73
2023/06/09 10:17:21;;;;;;;3.63;1.55;;;;;;;27.33;35.97;100247.66;4983003;28;20051;-72
2023/06/09 10:19:51;;;;;;;3.60;1.45;;;;;;;28.04;35.94;100214.63;4981017;28;20056;-74
2023/06/09 10:22:18;;;;;;;1.35;0.70;;;;;;;28.65;35.07;100222.53;4982083;28;20081;-73
2023/06/09 10:24:44;;;;;;;5.15;1.95;;;;;;;27.79;37.67;100308.13;4984452;28;20035;-73
2023/06/09 10:27:10;;;;;;;2.42;1.15;;;;;;;27.44;37.70;100287.34;4984854;28;20052;-74
2023/06/09 10:29:36;;;;;;;2.83;2.03;;;;;;;28.11;38.36;100318.41;4980455;28;20114;-76
2023/06/09 10:32:02;;;;;;;2.70;1.10;;;;;;;27.66;37.44;100207.56;4984183;28;20051;-75
2023/06/09 10:34:33;;;;;;;3.58;1.50;;;;;;;28.02;37.15;100263.28;4980565;28;20070;-75
2023/06/09 10:36:59;;;;;;;3.38;1.20;;;;;;;27.75;38.62;100291.31;4981512;28;20070;-75
2023/06/09 10:39:32;;;;;;;3.50;1.27;;;;;;;28.26;38.11;100289.38;4984534;28;20511;-75
2023/06/09 10:42:10;;;;;;;;;;;;;;;28.44;38.67;100306.03;4984181;28;20053;-75
2023/06/09 10:44:55;;;;;;;1.58;1.05;;;;;;;28.52;36.08;100282.91;4980038;28;19976;-73
2023/06/09 10:47:49;;;;;;;4.45;2.13;;;;;;;28.66;38.37;100299.84;4978214;28;20076;-72
2023/06/09 10:50:26;;;;;;;2.33;1.45;;;;;;;28.93;35.96;100226.59;4978354;28;20050;-71
2023/06/09 10:52:54;;;;;;;2.05;1.50;;;;;;;28.62;35.97;100226.34;4976122;28;20070;-81
2023/06/09 10:55:22;;;;;;;1.85;0.98;;;;;;;28.42;34.33;100233.25;4983045;28;20205;-75
2023/06/09 10:57:49;;;;;;;3.13;1.88;;;;;;;28.24;35.62;100292.22;4982419;28;20152;-69
2023/06/09 11:00:15;;;;;;;2.97;1.58;;;;;;;28.51;34.93;100194.78;4982223;28;20088;-70
2023/06/09 11:02:45;;;;;;;2.30;1.38;;;;;;;29.71;35.45;100284.34;4980981;28;20046;-70
2023/06/09 11:05:11;;;;;;;2.10;1.20;;;;;;;28.47;35.50;100289.63;4983127;28;20042;-70
2023/06/09 11:07:50;;;;;;;4.18;2.10;;;;;;;27.22;36.44;100198.22;4978612;28;20046;-71
2023/06/09 11:10:19;;;;;;;2.55;1.55;;;;;;;28.93;35.83;100288.75;4976651;28;20085;-70
2023/06/09 11:12:50;;;;;;;4.05;2.13;;;;;;;28.94;35.23;100187.78;4979494;28;20031;-70
2023/06/09 11:15:16;;;;;;;2.58;1.35;;;;;;;27.71;37.08;100268.25;4982363;28;20045;-71
2023/06/09 11:17:41;;;;;;;2.95;1.65;;;;;;;29.50;35.04;100277.00;4986703;28;20403;-71
2023/06/09 11:20:10;;;;;;;4.38;1.15;;;;;;;29.41;35.52;100180.41;4983856;28;20116;-71
2023/06/09 11:22:41;;;;;;;1.73;1.20;;;;;;;30.03;34.79;100266.28;4986824;28;20053;-71
2023/06/09 11:25:08;;;;;;;3.80;1.30;;;;;;;29.75;34.88;100253.34;4977500;28;20049;-70